»·PEaware :: N5491J KBUR-KLGB

N5491J :: KBUR-KLGB

FLIGHT INFORMATION

Flight Status: Arrived
Operator: Privately registered:
United States
More flights under this callsign
Pilot: Aero Safety Training (369)
Aircraft: CESSNA 172 SKYHAWK
(C172)
More flights by this aircraft type
Origin: KBUR Bob Hope-Burbank
United States
Destination: KLGB Long Beach
United States
More flights between these airports :: More routes between these airports
Route: +ELMOO6 ELMOO V186 ADAMM V394 SLI
File this flight plan on PilotEdge
Remarks: Weather is set to 700' OVC.
Altitude:
(Current/Filed)
5,000ft
Speed:
(Current/Filed)
105kts
Departed: 03-Dec-14 01:47 PM
Arrived: 03-Dec-14 02:27 PM
Distance/Time
Traveled:
25nm/0:39
Distance/Time
To Go:
Arrived

Flight Plot

Page will automatically refresh every two minutes.


Map Options




Map Legend


Flown Route
Filed Route
Departure Airport
Arrival Airport
Navaid (VOR, NDB)
Fix

Horizontal Profiles

Position Reports

Time Latitude Longitude Heading Altitude Ground
Speed
03-Dec-14 13:19 34.199919 -118.359614 75 781ft 0kts
03-Dec-14 13:20 34.199919 -118.359614 75 781ft 0kts
03-Dec-14 13:21 34.199919 -118.359614 75 781ft 0kts
03-Dec-14 13:22 34.199920 -118.359612 75 781ft 0kts
03-Dec-14 13:23 34.199921 -118.359608 75 781ft 0kts
03-Dec-14 13:24 34.199921 -118.359605 75 781ft 0kts
03-Dec-14 13:25 34.199922 -118.359602 75 781ft 0kts
03-Dec-14 13:26 34.199923 -118.359598 75 781ft 0kts
03-Dec-14 13:27 34.199924 -118.359595 75 781ft 0kts
03-Dec-14 13:28 34.199924 -118.359592 75 781ft 0kts
03-Dec-14 13:29 34.199925 -118.359588 75 781ft 0kts
03-Dec-14 13:30 34.199926 -118.359585 75 781ft 0kts
03-Dec-14 13:31 34.199926 -118.359582 75 781ft 0kts
03-Dec-14 13:32 34.199927 -118.359578 75 781ft 0kts
03-Dec-14 13:33 34.199928 -118.359575 75 781ft 0kts
03-Dec-14 13:34 34.199928 -118.359572 75 781ft 0kts
03-Dec-14 13:35 34.199929 -118.359568 75 781ft 0kts
03-Dec-14 13:36 34.199930 -118.359565 75 781ft 0kts
03-Dec-14 13:37 34.199931 -118.359562 75 781ft 0kts
03-Dec-14 13:38 34.199931 -118.359558 75 781ft 0kts
03-Dec-14 13:39 34.199932 -118.359555 75 781ft 0kts
03-Dec-14 13:40 34.200644 -118.359314 359 781ft 23kts
03-Dec-14 13:41 34.208131 -118.360293 346 781ft 30kts
03-Dec-14 13:42 34.211986 -118.361068 80 781ft 0kts
03-Dec-14 13:43 34.211995 -118.361004 80 781ft 4kts
03-Dec-14 13:44 34.204189 -118.357990 165 964ft 67kts
03-Dec-14 13:45 34.191464 -118.342882 122 1682ft 71kts
03-Dec-14 13:46 34.178738 -118.322041 130 2561ft 80kts
03-Dec-14 13:47 34.166889 -118.299311 121 3448ft 81kts
03-Dec-14 13:48 34.154957 -118.276609 119 4245ft 79kts
03-Dec-14 13:49 34.143785 -118.253430 105 4894ft 79kts
03-Dec-14 13:50 34.135943 -118.223635 107 5066ft 102kts
03-Dec-14 13:51 34.126259 -118.190227 111 5079ft 105kts
03-Dec-14 13:52 34.117259 -118.155636 101 5104ft 106kts
03-Dec-14 13:53 34.110354 -118.119927 104 5079ft 109kts
03-Dec-14 13:54 34.099544 -118.084476 108 4998ft 114kts
03-Dec-14 13:55 34.088710 -118.049084 110 4999ft 111kts
03-Dec-14 13:56 34.078064 -118.014447 110 4998ft 108kts
03-Dec-14 13:57 34.067665 -117.980579 110 4999ft 107kts
03-Dec-14 13:58 34.057279 -117.946789 110 4999ft 107kts
03-Dec-14 13:59 34.046877 -117.912984 110 4999ft 107kts
03-Dec-14 14:00 34.036508 -117.879322 110 5000ft 107kts
03-Dec-14 14:01 34.026093 -117.845554 110 5000ft 107kts
03-Dec-14 14:02 34.005708 -117.827274 181 5005ft 106kts
03-Dec-14 14:03 33.977210 -117.836365 200 5000ft 107kts
03-Dec-14 14:04 33.949308 -117.849674 201 5000ft 107kts
03-Dec-14 14:05 33.921508 -117.862809 201 5000ft 107kts
03-Dec-14 14:06 33.893736 -117.875824 201 4999ft 107kts
03-Dec-14 14:07 33.864635 -117.883890 192 5000ft 107kts
03-Dec-14 14:08 33.835406 -117.891585 192 5000ft 107kts
03-Dec-14 14:09 33.806299 -117.899243 192 5000ft 107kts
03-Dec-14 14:10 33.777264 -117.906876 192 4906ft 101kts
03-Dec-14 14:11 33.751084 -117.913755 192 4380ft 94kts
03-Dec-14 14:12 33.725168 -117.920562 192 3886ft 96kts
03-Dec-14 14:13 33.698590 -117.928333 211 3330ft 103kts
03-Dec-14 14:14 33.698350 -117.963370 282 2399ft 109kts
03-Dec-14 14:15 33.704928 -117.997082 284 2064ft 105kts
03-Dec-14 14:16 33.717362 -118.029767 311 2040ft 111kts
03-Dec-14 14:17 33.738322 -118.054806 313 2072ft 89kts
03-Dec-14 14:18 33.755817 -118.076205 322 1671ft 87kts
03-Dec-14 14:19 33.774140 -118.098199 312 1107ft 95kts
03-Dec-14 14:20 33.791536 -118.118623 318 889ft 76kts
03-Dec-14 14:21 33.802765 -118.141290 284 909ft 84kts
03-Dec-14 14:22 33.804059 -118.165770 293 816ft 65kts
03-Dec-14 14:23 33.813818 -118.165173 90 303ft 57kts
03-Dec-14 14:24 33.813266 -118.157403 163 63ft 0kts
03-Dec-14 14:25 33.813013 -118.156695 87 63ft 23kts
03-Dec-14 14:26 33.812592 -118.151367 343 63ft 0kts

Navigation Log

Ident Type
1. KBUR Airport
2. ELMOO Fix
3. ITSME Fix
4. PIRRO Fix
5. ADAMM Fix
6. POWUP Fix
7. AHEIM Fix
8. SLI Navaid
9. KLGB Airport